createdAt,value
2022-12-25T00:00:55.564Z,64.99
2022-12-25T00:03:22.442Z,64.89
2022-12-25T00:05:49.120Z,64.66
2022-12-25T00:08:15.751Z,64.69
2022-12-25T00:10:45.177Z,65.01
2022-12-25T00:13:12.267Z,65.75
2022-12-25T00:15:41.903Z,65.18
2022-12-25T00:18:08.700Z,64.57
2022-12-25T00:20:36.380Z,64.79
2022-12-25T00:23:02.962Z,64.54
2022-12-25T00:25:29.658Z,64.75
2022-12-25T00:27:56.231Z,64.39
2022-12-25T00:30:22.874Z,64.92
2022-12-25T00:32:49.513Z,65.97
2022-12-25T00:35:16.172Z,65.31
2022-12-25T00:37:42.809Z,65.26
2022-12-25T00:40:09.996Z,64.60
2022-12-25T00:42:36.595Z,64.50
2022-12-25T00:45:03.540Z,64.44
2022-12-25T00:47:30.355Z,64.41
2022-12-25T00:49:56.950Z,64.84
2022-12-25T00:52:23.545Z,64.78
2022-12-25T00:54:50.093Z,64.83
2022-12-25T00:57:16.713Z,64.84
2022-12-25T00:59:43.320Z,64.75
2022-12-25T01:02:25.566Z,65.29
2022-12-25T01:04:57.014Z,64.64
2022-12-25T01:07:26.388Z,64.67
2022-12-25T01:10:11.705Z,64.69
2022-12-25T01:12:41.660Z,64.83
2022-12-25T01:15:10.153Z,64.45
2022-12-25T01:17:36.888Z,64.50
2022-12-25T01:20:04.299Z,64.40
2022-12-25T01:22:30.909Z,64.40
2022-12-25T01:24:57.536Z,64.37
2022-12-25T01:27:24.156Z,64.30
2022-12-25T01:29:50.772Z,64.24
2022-12-25T01:32:17.419Z,64.51
2022-12-25T01:34:44.245Z,65.25
2022-12-25T01:37:11.226Z,64.71
2022-12-25T01:39:37.925Z,64.44
2022-12-25T01:42:04.608Z,64.63
2022-12-25T01:44:37.142Z,64.93
2022-12-25T01:47:05.696Z,64.64
2022-12-25T01:49:34.751Z,65.41
2022-12-25T01:52:24.783Z,66.42
2022-12-25T01:54:57.936Z,65.51
2022-12-25T01:57:27.259Z,65.06
2022-12-25T01:59:56.340Z,65.18
2022-12-25T02:02:23.509Z,66.67
2022-12-25T02:04:58.478Z,66.86
2022-12-25T02:07:26.978Z,65.70
2022-12-25T02:09:53.865Z,65.60
2022-12-25T02:12:25.977Z,66.35
2022-12-25T02:15:01.125Z,66.62
2022-12-25T02:17:50.147Z,66.72
2022-12-25T02:20:22.461Z,66.45
2022-12-25T02:23:17.589Z,67.15
2022-12-25T02:26:09.303Z,66.44
2022-12-25T02:28:45.965Z,66.55
2022-12-25T02:31:12.802Z,66.03
2022-12-25T02:34:03.048Z,66.17
2022-12-25T02:36:46.167Z,65.65
2022-12-25T02:39:46.484Z,65.81
2022-12-25T02:42:21.405Z,65.55
2022-12-25T02:45:09.786Z,65.29
2022-12-25T02:47:56.700Z,65.47
2022-12-25T02:50:44.149Z,67.78
2022-12-25T02:53:30.662Z,66.76
2022-12-25T02:56:17.045Z,66.23
2022-12-25T02:59:05.096Z,65.82
2022-12-25T03:01:53.151Z,65.26
2022-12-25T03:04:41.341Z,65.48
2022-12-25T03:07:20.602Z,66.70
2022-12-25T03:10:15.855Z,66.27
2022-12-25T03:13:25.936Z,65.82
2022-12-25T03:16:11.045Z,65.44
2022-12-25T03:18:37.888Z,65.34
2022-12-25T03:21:40.234Z,65.59
2022-12-25T03:24:25.701Z,65.47
2022-12-25T03:26:55.977Z,65.21
2022-12-25T03:29:47.087Z,65.25
2022-12-25T03:32:37.704Z,66.67
2022-12-25T03:35:47.627Z,66.35
2022-12-25T03:38:47.939Z,65.93
2022-12-25T03:42:01.990Z,65.82
2022-12-25T03:45:25.607Z,65.88
2022-12-25T03:48:13.045Z,65.76
2022-12-25T03:51:06.668Z,65.67
2022-12-25T03:54:02.766Z,66.20
2022-12-25T03:56:49.501Z,66.20
2022-12-25T03:59:39.821Z,66.56
2022-12-25T04:02:25.319Z,65.78
2022-12-25T04:05:10.554Z,66.15
2022-12-25T04:07:55.512Z,66.26
2022-12-25T04:10:40.862Z,67.30
2022-12-25T04:13:26.197Z,67.17
2022-12-25T04:16:12.304Z,67.04
2022-12-25T04:18:57.467Z,67.08
2022-12-25T04:21:43.370Z,66.87
2022-12-25T04:24:29.452Z,66.80
2022-12-25T04:27:14.740Z,66.52
2022-12-25T04:30:00.009Z,66.13
2022-12-25T04:32:45.338Z,66.31
2022-12-25T04:35:30.628Z,67.08
2022-12-25T04:37:57.340Z,67.13
2022-12-25T04:40:24.131Z,66.78
2022-12-25T04:42:51.736Z,67.45
2022-12-25T04:45:18.571Z,66.71
2022-12-25T04:47:45.156Z,66.40
2022-12-25T04:50:12.016Z,66.49
2022-12-25T04:52:41.091Z,66.38
2022-12-25T04:55:09.297Z,66.19
2022-12-25T04:57:36.889Z,66.29
2022-12-25T05:00:05.247Z,66.25
2022-12-25T05:02:32.298Z,66.68
2022-12-25T05:04:59.035Z,66.72
2022-12-25T05:07:25.709Z,66.54
2022-12-25T05:09:52.323Z,66.34
2022-12-25T05:12:18.965Z,66.68
2022-12-25T05:14:45.558Z,66.69
2022-12-25T05:17:12.150Z,67.14
2022-12-25T05:19:38.726Z,66.88
2022-12-25T05:22:05.347Z,66.47
2022-12-25T05:24:32.061Z,66.24
2022-12-25T05:26:58.704Z,66.50
2022-12-25T05:29:25.409Z,66.32
2022-12-25T05:31:52.100Z,66.24
2022-12-25T05:34:18.747Z,66.36
2022-12-25T05:36:45.384Z,67.10
2022-12-25T05:39:12.020Z,67.24
2022-12-25T05:41:38.681Z,66.75
2022-12-25T05:44:05.306Z,66.55
2022-12-25T05:46:32.085Z,66.41
2022-12-25T05:48:58.759Z,66.38
2022-12-25T05:51:26.178Z,66.30
2022-12-25T05:53:52.995Z,66.37
2022-12-25T05:56:19.588Z,66.28
2022-12-25T05:58:46.219Z,66.14
2022-12-25T06:01:19.941Z,66.47
2022-12-25T06:03:46.949Z,66.32
2022-12-25T06:06:22.240Z,66.36
2022-12-25T06:08:48.960Z,66.22
2022-12-25T06:11:15.943Z,66.29
2022-12-25T06:13:43.438Z,66.41
2022-12-25T06:16:12.085Z,66.71
2022-12-25T06:18:41.421Z,66.63
2022-12-25T06:21:09.419Z,66.55
2022-12-25T06:23:37.260Z,66.56
2022-12-25T06:26:09.814Z,66.68
2022-12-25T06:28:36.962Z,66.87
2022-12-25T06:31:08.374Z,66.90
2022-12-25T06:33:36.024Z,67.15
2022-12-25T06:36:11.865Z,67.21
2022-12-25T06:38:38.492Z,66.93
2022-12-25T06:41:13.679Z,67.25
2022-12-25T06:43:40.608Z,66.83
2022-12-25T06:46:10.271Z,67.08
2022-12-25T06:48:38.069Z,66.50
2022-12-25T06:51:06.326Z,66.64
2022-12-25T06:53:39.983Z,66.27
2022-12-25T06:56:16.016Z,66.41
2022-12-25T06:58:44.073Z,66.43
2022-12-25T07:01:16.855Z,66.45
2022-12-25T07:03:46.273Z,66.72
2022-12-25T07:06:12.953Z,67.08
2022-12-25T07:08:39.687Z,66.72
2022-12-25T07:11:06.678Z,66.88
2022-12-25T07:13:33.592Z,67.76
2022-12-25T07:16:02.118Z,67.64
2022-12-25T07:18:29.367Z,67.57
2022-12-25T07:20:56.038Z,67.10
2022-12-25T07:23:23.435Z,67.93
2022-12-25T07:25:57.289Z,67.76
2022-12-25T07:28:24.134Z,68.00
2022-12-25T07:30:50.833Z,67.58
2022-12-25T07:33:17.526Z,67.35
2022-12-25T07:35:44.473Z,67.29
2022-12-25T07:38:11.431Z,67.77
2022-12-25T07:40:38.608Z,68.72
2022-12-25T07:43:05.323Z,68.44
2022-12-25T07:45:32.002Z,68.31
2022-12-25T07:48:04.323Z,68.11
2022-12-25T07:50:31.985Z,67.75
2022-12-25T07:52:58.575Z,67.38
2022-12-25T07:55:25.195Z,67.21
2022-12-25T07:57:52.536Z,67.25
2022-12-25T08:00:19.623Z,68.61
2022-12-25T08:02:49.882Z,67.87
2022-12-25T08:05:16.970Z,67.89
2022-12-25T08:07:43.665Z,68.08
2022-12-25T08:10:10.670Z,68.12
2022-12-25T08:12:37.278Z,67.87
2022-12-25T08:15:04.250Z,67.79
2022-12-25T08:17:30.831Z,68.30
2022-12-25T08:19:57.465Z,67.99
2022-12-25T08:22:24.044Z,68.18
2022-12-25T08:24:50.623Z,68.19
2022-12-25T08:27:17.259Z,68.08
2022-12-25T08:29:44.726Z,68.11
2022-12-25T08:32:11.361Z,68.08
2022-12-25T08:34:38.873Z,68.03
2022-12-25T08:37:05.514Z,68.15
2022-12-25T08:39:32.367Z,68.14
2022-12-25T08:41:58.983Z,69.48
2022-12-25T08:44:25.576Z,69.85
2022-12-25T08:46:52.237Z,70.15
2022-12-25T08:49:19.397Z,70.01
2022-12-25T08:51:46.220Z,70.02
2022-12-25T08:54:12.858Z,69.73
2022-12-25T08:56:39.520Z,69.24
2022-12-25T08:59:06.171Z,68.80
2022-12-25T09:01:32.936Z,68.11
2022-12-25T09:03:59.665Z,68.86
2022-12-25T09:06:26.287Z,68.12
2022-12-25T09:08:52.933Z,67.88
2022-12-25T09:11:20.316Z,66.42
2022-12-25T09:13:47.938Z,68.15
2022-12-25T09:16:18.943Z,67.05
2022-12-25T09:18:45.739Z,67.45
2022-12-25T09:21:14.167Z,66.71
2022-12-25T09:23:42.269Z,65.74
2022-12-25T09:26:12.853Z,65.13
2022-12-25T09:28:43.663Z,65.66
2022-12-25T09:31:13.491Z,64.95
2022-12-25T09:33:40.133Z,65.70
2022-12-25T09:36:08.329Z,66.48
2022-12-25T09:38:36.015Z,66.06
2022-12-25T09:41:07.783Z,65.43
2022-12-25T09:43:46.384Z,65.02
2022-12-25T09:46:17.300Z,63.96
2022-12-25T09:48:55.299Z,63.05
2022-12-25T09:51:24.594Z,65.11
2022-12-25T09:54:03.071Z,63.93
2022-12-25T09:56:29.688Z,63.48
2022-12-25T09:58:56.406Z,63.54
2022-12-25T10:01:50.446Z,63.83
2022-12-25T10:04:41.176Z,62.21
2022-12-25T10:07:37.065Z,60.88
2022-12-25T10:10:28.010Z,61.18
2022-12-25T10:13:24.095Z,60.29
2022-12-25T10:16:07.081Z,59.80
2022-12-25T10:18:51.607Z,58.32
2022-12-25T10:21:19.395Z,59.57
2022-12-25T10:23:54.770Z,58.48
2022-12-25T10:26:25.175Z,57.43
2022-12-25T10:29:14.823Z,56.74
2022-12-25T10:31:45.285Z,57.54
2022-12-25T10:34:13.231Z,58.44
2022-12-25T10:36:42.038Z,55.69
2022-12-25T10:39:16.363Z,55.88
2022-12-25T10:41:45.922Z,56.03
2022-12-25T10:44:20.803Z,54.37
2022-12-25T10:46:52.802Z,55.04
2022-12-25T10:49:23.031Z,55.28
2022-12-25T10:51:50.326Z,54.20
2022-12-25T10:54:35.792Z,52.76
2022-12-25T10:57:23.909Z,54.63
2022-12-25T10:59:57.242Z,54.14
2022-12-25T11:02:25.911Z,55.80
2022-12-25T11:05:02.447Z,55.71
2022-12-25T11:07:30.237Z,54.97
2022-12-25T11:10:05.955Z,53.29
2022-12-25T11:12:44.546Z,53.66
2022-12-25T11:15:36.429Z,53.66
2022-12-25T11:18:05.184Z,51.56
2022-12-25T11:20:33.264Z,51.30
2022-12-25T11:22:59.902Z,48.70
2022-12-25T11:25:28.163Z,49.15
2022-12-25T11:28:00.034Z,47.75
2022-12-25T11:30:29.852Z,47.01
2022-12-25T11:33:00.441Z,46.97
2022-12-25T11:35:31.993Z,48.35
2022-12-25T11:37:58.795Z,47.58
2022-12-25T11:40:30.871Z,47.82
2022-12-25T11:43:19.823Z,47.99
2022-12-25T11:46:00.239Z,45.92
2022-12-25T11:48:41.322Z,44.55
2022-12-25T11:51:10.039Z,44.69
2022-12-25T11:53:43.996Z,40.41
2022-12-25T11:56:29.317Z,40.11
2022-12-25T11:59:07.155Z,43.32
2022-12-25T12:01:42.869Z,42.77
2022-12-25T12:04:43.558Z,40.47
2022-12-25T12:07:17.338Z,41.30
2022-12-25T12:09:55.969Z,41.52
2022-12-25T12:12:28.874Z,43.20
2022-12-25T12:14:55.348Z,41.03
2022-12-25T12:17:22.031Z,42.46
2022-12-25T12:19:48.773Z,43.57
2022-12-25T12:22:24.959Z,44.58
2022-12-25T12:24:58.552Z,43.47
2022-12-25T12:27:43.659Z,44.46
2022-12-25T12:30:34.780Z,45.79
2022-12-25T12:33:05.646Z,45.32
2022-12-25T12:35:36.109Z,46.89
2022-12-25T12:38:06.612Z,46.11
2022-12-25T12:40:40.841Z,45.02
2022-12-25T12:43:33.970Z,46.40
2022-12-25T12:46:19.169Z,44.76
2022-12-25T12:48:51.209Z,43.95
2022-12-25T12:51:32.899Z,43.00
2022-12-25T12:54:07.352Z,43.25
2022-12-25T12:56:33.961Z,44.08
2022-12-25T12:59:00.605Z,43.79
2022-12-25T13:01:27.305Z,44.75
2022-12-25T13:04:11.952Z,44.94
2022-12-25T13:06:51.536Z,45.50
2022-12-25T13:09:35.968Z,45.92
2022-12-25T13:12:08.262Z,45.01
2022-12-25T13:14:36.234Z,45.07
2022-12-25T13:17:07.613Z,43.29
2022-12-25T13:19:36.588Z,43.47
2022-12-25T13:22:06.853Z,44.24
2022-12-25T13:24:36.078Z,45.32
2022-12-25T13:27:21.710Z,46.24
2022-12-25T13:29:48.346Z,45.44
2022-12-25T13:32:22.999Z,44.96
2022-12-25T13:34:50.625Z,45.55
2022-12-25T13:37:20.875Z,45.80
2022-12-25T13:39:47.445Z,45.89
2022-12-25T13:42:17.499Z,46.19
2022-12-25T13:44:47.950Z,45.96
2022-12-25T13:47:22.572Z,45.34
2022-12-25T13:49:51.159Z,45.39
2022-12-25T13:52:24.312Z,46.11
2022-12-25T13:54:58.947Z,47.04
2022-12-25T13:57:30.322Z,46.76
2022-12-25T13:59:57.809Z,47.18
2022-12-25T14:02:30.275Z,49.00
2022-12-25T14:04:57.099Z,48.31
2022-12-25T14:07:24.769Z,47.56
2022-12-25T14:09:57.564Z,47.24
2022-12-25T14:12:25.863Z,47.07
2022-12-25T14:14:53.692Z,47.69
2022-12-25T14:17:21.194Z,47.86
2022-12-25T14:19:58.775Z,48.62
2022-12-25T14:22:30.075Z,47.94
2022-12-25T14:24:56.728Z,47.73
2022-12-25T14:27:28.779Z,47.48
2022-12-25T14:29:58.567Z,48.00
2022-12-25T14:32:29.141Z,47.66
2022-12-25T14:34:59.621Z,46.98
2022-12-25T14:37:30.613Z,46.79
2022-12-25T14:40:01.422Z,46.65
2022-12-25T14:42:30.925Z,46.44
2022-12-25T14:45:03.495Z,46.90
2022-12-25T14:47:32.417Z,46.84
2022-12-25T14:49:59.952Z,47.11
2022-12-25T14:52:31.687Z,47.40
2022-12-25T14:55:01.805Z,47.10
2022-12-25T14:57:34.442Z,48.32
2022-12-25T15:00:06.391Z,47.79
2022-12-25T15:02:45.849Z,48.60
2022-12-25T15:05:42.371Z,48.26
2022-12-25T15:08:08.921Z,47.82
2022-12-25T15:13:23.383Z,48.59
2022-12-25T15:15:49.991Z,48.61
2022-12-25T15:18:17.563Z,48.78
2022-12-25T15:20:44.276Z,49.44
2022-12-25T15:23:20.147Z,49.38
2022-12-25T15:25:47.625Z,48.96
2022-12-25T15:28:14.505Z,48.93
2022-12-25T15:30:41.416Z,48.64
2022-12-25T15:33:16.662Z,48.97
2022-12-25T15:35:44.482Z,48.56
2022-12-25T15:38:14.156Z,48.91
2022-12-25T15:40:41.742Z,48.67
2022-12-25T15:43:38.992Z,49.45
2022-12-25T15:45:58.903Z,49.85
2022-12-25T15:48:25.495Z,50.16
2022-12-25T15:50:52.133Z,50.22
2022-12-25T15:53:18.750Z,50.90
2022-12-25T15:55:45.366Z,50.30
2022-12-25T15:58:12.963Z,50.44
2022-12-25T16:00:39.617Z,50.09
2022-12-25T16:03:06.284Z,50.60
2022-12-25T16:05:33.122Z,50.29
2022-12-25T16:07:59.768Z,50.83
2022-12-25T16:10:26.351Z,52.50
2022-12-25T16:12:52.970Z,51.61
2022-12-25T16:15:19.569Z,50.68
2022-12-25T16:17:46.204Z,50.47
2022-12-25T16:20:13.245Z,50.47
2022-12-25T16:22:40.080Z,50.33
2022-12-25T16:25:13.811Z,50.63
2022-12-25T16:27:40.584Z,50.84
2022-12-25T16:30:08.003Z,50.70
2022-12-25T16:32:34.698Z,51.05
2022-12-25T16:35:01.366Z,51.95
2022-12-25T16:37:28.761Z,52.62
2022-12-25T16:39:55.493Z,53.58
2022-12-25T16:42:22.219Z,53.10
2022-12-25T16:44:48.832Z,52.99
2022-12-25T16:47:15.446Z,53.26
2022-12-25T16:49:42.133Z,53.67
2022-12-25T16:52:08.736Z,55.49
2022-12-25T16:54:35.432Z,55.25
2022-12-25T16:57:02.041Z,54.61
2022-12-25T16:59:32.993Z,54.62
2022-12-25T17:01:59.750Z,54.01
2022-12-25T17:04:27.879Z,54.33
2022-12-25T17:06:54.564Z,53.86
2022-12-25T17:09:21.175Z,53.87
2022-12-25T17:11:47.825Z,55.10
2022-12-25T17:14:14.429Z,54.77
2022-12-25T17:16:41.287Z,55.13
2022-12-25T17:19:16.380Z,55.91
2022-12-25T17:21:43.041Z,55.37
2022-12-25T17:24:09.962Z,59.05
2022-12-25T17:26:36.647Z,57.16
2022-12-25T17:29:03.847Z,56.00
2022-12-25T17:31:30.533Z,56.79
2022-12-25T17:33:57.832Z,57.50
2022-12-25T17:36:24.493Z,58.98
2022-12-25T17:38:51.260Z,56.80
2022-12-25T17:41:19.558Z,56.44
2022-12-25T17:43:47.329Z,56.05
2022-12-25T17:46:21.681Z,55.51
2022-12-25T17:48:51.877Z,55.48
2022-12-25T17:51:22.025Z,55.10
2022-12-25T17:53:51.573Z,54.98
2022-12-25T17:56:19.995Z,55.20
2022-12-25T17:58:51.803Z,55.64
2022-12-25T18:01:19.963Z,55.03
2022-12-25T18:03:47.151Z,56.28
2022-12-25T18:06:19.296Z,56.25
2022-12-25T18:08:47.004Z,55.46
2022-12-25T18:11:20.633Z,55.44
2022-12-25T18:13:50.015Z,55.51
2022-12-25T18:16:18.466Z,55.57
2022-12-25T18:18:51.381Z,56.68
2022-12-25T18:21:19.513Z,55.83
2022-12-25T18:23:46.533Z,55.52
2022-12-25T18:26:13.627Z,55.55
2022-12-25T18:28:42.488Z,55.60
2022-12-25T18:31:16.882Z,55.82
2022-12-25T18:33:44.723Z,55.73
2022-12-25T18:36:13.469Z,56.54
2022-12-25T18:38:40.559Z,56.42
2022-12-25T18:41:09.457Z,56.36
2022-12-25T18:43:52.840Z,59.17
2022-12-25T18:46:26.972Z,58.35
2022-12-25T18:48:55.424Z,58.18
2022-12-25T18:51:22.326Z,58.66
2022-12-25T18:53:49.026Z,58.39
2022-12-25T18:56:17.556Z,58.92
2022-12-25T18:58:45.520Z,58.43
2022-12-25T19:01:21.613Z,58.81
2022-12-25T19:03:49.856Z,61.01
2022-12-25T19:06:25.232Z,62.39
2022-12-25T19:08:52.276Z,61.28
2022-12-25T19:11:19.645Z,61.67
2022-12-25T19:13:46.573Z,60.73
2022-12-25T19:16:14.273Z,60.20
2022-12-25T19:18:40.956Z,61.21
2022-12-25T19:21:09.317Z,61.53
2022-12-25T19:23:37.856Z,61.09
2022-12-25T19:26:06.410Z,59.93
2022-12-25T19:28:33.185Z,59.02
2022-12-25T19:31:00.918Z,59.19
2022-12-25T19:33:27.939Z,59.04
2022-12-25T19:35:59.568Z,59.74
2022-12-25T19:38:26.394Z,59.38
2022-12-25T19:41:00.843Z,60.09
2022-12-25T19:43:33.676Z,61.15
2022-12-25T19:46:01.834Z,60.03
2022-12-25T19:48:29.490Z,59.63
2022-12-25T19:50:56.169Z,58.87
2022-12-25T19:53:26.058Z,59.08
2022-12-25T19:55:53.696Z,58.65
2022-12-25T19:58:21.968Z,58.88
2022-12-25T20:01:05.543Z,58.78
2022-12-25T20:03:33.799Z,58.20
2022-12-25T20:06:01.097Z,59.67
2022-12-25T20:08:28.081Z,61.58
2022-12-25T20:10:55.001Z,62.96
2022-12-25T20:13:21.776Z,61.41
2022-12-25T20:15:48.733Z,62.67
2022-12-25T20:18:16.871Z,62.31
2022-12-25T20:20:45.007Z,62.71
2022-12-25T20:23:11.710Z,61.43
2022-12-25T20:25:42.076Z,60.68
2022-12-25T20:28:09.152Z,60.11
2022-12-25T20:30:39.587Z,60.54
2022-12-25T20:33:06.376Z,60.70
2022-12-25T20:35:33.081Z,60.57
2022-12-25T20:37:59.695Z,62.30
2022-12-25T20:40:26.325Z,63.41
2022-12-25T20:42:53.001Z,63.00
2022-12-25T20:45:19.658Z,62.16
2022-12-25T20:47:46.273Z,64.30
2022-12-25T20:50:12.908Z,64.40
2022-12-25T20:52:39.496Z,63.54
2022-12-25T20:55:06.302Z,63.93
2022-12-25T20:57:33.734Z,63.79
2022-12-25T21:00:00.390Z,63.57
2022-12-25T21:02:35.515Z,63.11
2022-12-25T21:05:04.881Z,62.62
2022-12-25T21:07:31.559Z,63.97
2022-12-25T21:09:59.241Z,64.30
2022-12-25T21:12:26.339Z,63.97
2022-12-25T21:14:52.958Z,63.32
2022-12-25T21:17:19.593Z,62.31
2022-12-25T21:19:46.248Z,63.61
2022-12-25T21:22:12.899Z,62.87
2022-12-25T21:24:39.508Z,62.42
2022-12-25T21:27:06.105Z,63.00
2022-12-25T21:29:32.735Z,63.99
2022-12-25T21:32:17.836Z,62.45
2022-12-25T21:34:44.533Z,62.43
2022-12-25T21:37:11.144Z,62.93
2022-12-25T21:39:37.779Z,64.44
2022-12-25T21:42:04.699Z,63.80
2022-12-25T21:44:31.402Z,64.18
2022-12-25T21:46:58.000Z,65.14
2022-12-25T21:49:43.247Z,64.90
2022-12-25T21:52:09.907Z,63.82
2022-12-25T21:54:36.573Z,64.96
2022-12-25T21:57:03.479Z,64.41
2022-12-25T21:59:30.132Z,65.38
2022-12-25T22:01:56.901Z,65.04
2022-12-25T22:04:23.806Z,66.02
2022-12-25T22:07:09.367Z,64.64
2022-12-25T22:09:36.266Z,65.08
2022-12-25T22:12:22.192Z,67.47
2022-12-25T22:14:56.629Z,65.51
2022-12-25T22:17:46.596Z,65.68
2022-12-25T22:20:19.681Z,67.41
2022-12-25T22:22:46.476Z,67.09
2022-12-25T22:25:13.906Z,66.17
2022-12-25T22:27:42.292Z,67.06
2022-12-25T22:30:15.374Z,66.48
2022-12-25T22:32:42.383Z,66.06
2022-12-25T22:35:10.540Z,65.95
2022-12-25T22:37:37.254Z,66.43
2022-12-25T22:40:05.979Z,66.68
2022-12-25T22:42:32.922Z,66.75
2022-12-25T22:44:59.544Z,66.56
2022-12-25T22:47:26.152Z,66.94
2022-12-25T22:49:53.094Z,65.77
2022-12-25T22:52:19.900Z,65.36
2022-12-25T22:54:46.573Z,66.10
2022-12-25T22:57:13.208Z,67.46
2022-12-25T22:59:40.169Z,66.43
2022-12-25T23:02:06.928Z,66.75
2022-12-25T23:04:33.768Z,67.43
2022-12-25T23:07:00.504Z,66.82
2022-12-25T23:09:29.916Z,67.58
2022-12-25T23:11:58.014Z,67.91
2022-12-25T23:14:41.789Z,66.93
2022-12-25T23:17:31.537Z,66.57
2022-12-25T23:20:18.809Z,67.03
2022-12-25T23:23:04.873Z,67.40
2022-12-25T23:25:50.053Z,66.97
2022-12-25T23:28:36.631Z,67.76
2022-12-25T23:31:03.720Z,66.96
2022-12-25T23:33:30.367Z,66.63
2022-12-25T23:35:56.988Z,67.00
2022-12-25T23:38:23.693Z,66.29
2022-12-25T23:40:50.285Z,66.80
2022-12-25T23:43:16.914Z,67.03
2022-12-25T23:45:43.555Z,66.64
2022-12-25T23:48:10.180Z,66.41
2022-12-25T23:50:36.800Z,66.80
2022-12-25T23:53:03.409Z,67.51
2022-12-25T23:55:30.063Z,67.47
2022-12-25T23:57:56.671Z,68.04
